Dutch Harbor, AK

5:35 PM AKDT on July 30, 2014 (GMT -0800)
Dutch Harbor (PADU) Elev 13 ft | 53.90 °N, 166.54 °W | Change Station

Current weather conditions updated 39 minutes ago

Mostly Cloudy
Mostly Cloudy
54 °F
Feels Like 54 °F
N
7
Wind Variable Wind from East

Tomorrow is forecast to be Warmer than today.

Today
High -- | Low -- °F
--% Chance of Precip.
Yesterday
High -- | Low -- °F
Precip. -- in
7:20 AM 11:07 PM
Waxing Crescent, 15% visible
Pressure 30.31 in
Visibility 10.0 miles
Clouds Scattered Clouds 300 ft
Mostly Cloudy 1000 ft
Dew Point 49 °F
Humidity 83%
Rainfall 0.00 in
Snow Depth Not available.
UV 4 out of 12
Pollen Not available.
Air Quality Not available.
Flu Activity Not available.
METAR PADU 310056Z 10006KT 10SM SCT003 BKN010 12/09 A3029 RMK AO2 SLP262 BP T01220094

More Conditions Fewer Conditions

Pressure 30.31 in
Visibility 10.0 miles
Clouds Scattered Clouds 300 ft
Mostly Cloudy 1000 ft
Dew Point 49 °F
Humidity 83%
Rainfall 0.00 in
Snow Depth Not available.
UV 4 out of 12
Pollen Not available.
Air Quality Not available.
Flu Activity Not available.
METAR PADU 310056Z 10006KT 10SM SCT003 BKN010 12/09 A3029 RMK AO2 SLP262 BP T01220094

More Conditions Fewer Conditions

10-Day Weather Forecast

Almanac

Astronomy

Jul. 30, 2014 Rise Set
Actual Time 7:20 AM AKDT 11:07 PM AKDT
Civil Twilight 6:36 AM AKDT 11:51 PM AKDT
Nautical Twilight 5:33 AM AKDT 12:52 AM AKDT
Astronomical Twilight 3:46 AM AKDT 2:48 AM AKDT
Moon 11:44 AM AKDT (7/30) No Moon Set
Length of Visible Light 17h 14m
Length of Day
15h 46m
Tomorrow will be 3m 23s shorter.
Waxing Crescent, 15% of the Moon is Illuminated
Today
Waxing Crescent
Aug 3
First Quarter
Aug 10
Full
Aug 17
Last Quarter
Aug 25
New

Today's Extremes

State Highs State Lows

Community

WunderPhotos

Upload Photos

1,739,264 photos uploaded!

Nearby

Snow Depth

Station Depth Elevation
Mcneil Canyon 1 in 1320 ft
MF Bradley River 440 in 2300 ft
Rocky Point 2 in 500 ft
Cooper Lake 15 in 1200 ft
Grouse Creek Divide 0 in 700 ft

Earthquake Activity

City Distance Mag. Time & Date
No recent earthquake activity has been reported nearby.
Minimum magnitude displayed is 2.5.

Coastal Water Temperatures

Place Temperature
No Stations Reporting

Nearby Weather Stations

There are no personal weather stations in this area.